Time;durP1;ratioP1;P1;durP2;ratioP2;P2;SDS_P1;SDS_P2;PMS_P1;PMS_P2;Temp;Humidity;BMP_temperature;BMP_pressure;BME280_temperature;BME280_humidity;BME280_pressure;Samples;Min_cycle;Max_cycle;Signal;HPM_P1;HPM_P2
2024/02/24 00:02:00;;;;;;;12.80;11.90;;;6.80;1.00;;;;;;4782234;29;20242;-45
2024/02/24 00:04:26;;;;;;;11.30;10.57;;;6.80;1.00;;;;;;4787215;29;20221;-48
2024/02/24 00:06:51;;;;;;;11.93;11.13;;;6.90;1.00;;;;;;4802155;29;20189;-58
2024/02/24 00:09:17;;;;;;;13.77;12.70;;;6.90;1.00;;;;;;4791446;29;20187;-57
2024/02/24 00:11:42;;;;;;;12.73;11.83;;;6.90;1.00;;;;;;4784074;29;20680;-58
2024/02/24 00:14:08;;;;;;;12.23;11.43;;;6.90;1.00;;;;;;4799382;29;20198;-59
2024/02/24 00:16:34;;;;;;;13.20;12.40;;;6.90;1.00;;;;;;4802103;29;20194;-58
2024/02/24 00:18:59;;;;;;;12.43;11.63;;;6.90;1.00;;;;;;4783738;29;20303;-57
2024/02/24 00:21:26;;;;;;;13.17;12.17;;;6.90;1.00;;;;;;4783213;29;20325;-56
2024/02/24 00:23:51;;;;;;;12.30;11.40;;;6.90;1.00;;;;;;4780713;29;20207;-58
2024/02/24 00:26:17;;;;;;;12.23;11.53;;;6.90;1.00;;;;;;4799565;29;20432;-57
2024/02/24 00:28:42;;;;;;;12.33;11.60;;;6.90;1.00;;;;;;4786177;29;20283;-57
2024/02/24 00:31:08;;;;;;;12.50;11.60;;;6.90;1.00;;;;;;4788638;29;20197;-54
2024/02/24 00:33:33;;;;;;;12.80;11.90;;;6.90;1.00;;;;;;4796063;29;20203;-56
2024/02/24 00:36:00;;;;;;;11.23;10.53;;;6.80;1.00;;;;;;4798840;29;20864;-58
2024/02/24 00:38:26;;;;;;;12.30;11.50;;;6.80;1.00;;;;;;4787150;30;20564;-58
2024/02/24 00:40:51;;;;;;;13.10;12.00;;;6.80;1.00;;;;;;4791125;29;20433;-58
2024/02/24 00:43:17;;;;;;;12.43;11.60;;;6.80;1.00;;;;;;4790943;29;20912;-53
2024/02/24 00:45:42;;;;;;;12.23;11.50;;;6.80;1.00;;;;;;4800178;29;20187;-56
2024/02/24 00:48:08;;;;;;;12.43;11.73;;;6.70;1.00;;;;;;4787012;30;20275;-57
2024/02/24 00:50:34;;;;;;;12.27;11.40;;;6.70;1.00;;;;;;4788930;29;20196;-58
2024/02/24 00:52:59;;;;;;;12.33;11.60;;;6.60;1.00;;;;;;4790450;29;20813;-46
2024/02/24 00:55:25;;;;;;;11.93;11.13;;;6.60;1.00;;;;;;4784692;29;20227;-47
2024/02/24 00:57:50;;;;;;;12.27;11.47;;;6.60;1.00;;;;;;4789407;29;20657;-46
2024/02/24 01:00:17;;;;;;;12.70;11.83;;;6.50;1.00;;;;;;4796621;29;20178;-42
2024/02/24 01:02:43;;;;;;;11.77;11.07;;;6.50;1.00;;;;;;4790902;29;20682;-47
2024/02/24 01:05:09;;;;;;;12.23;11.43;;;6.50;1.00;;;;;;4786061;29;20994;-41
2024/02/24 01:07:35;;;;;;;11.63;10.73;;;6.50;1.00;;;;;;4787450;29;20448;-46
2024/02/24 01:10:01;;;;;;;12.30;11.50;;;6.40;1.00;;;;;;4794270;29;20186;-43
2024/02/24 01:12:27;;;;;;;12.50;11.70;;;6.30;1.00;;;;;;4803117;29;20427;-48
2024/02/24 01:14:53;;;;;;;12.33;11.53;;;6.30;1.00;;;;;;4790002;29;20191;-50
2024/02/24 01:17:19;;;;;;;12.40;11.50;;;6.30;42.80;;;;;;4786470;29;20567;-46
2024/02/24 01:19:45;;;;;;;12.20;11.40;;;6.40;91.10;;;;;;4780845;29;20643;-48
2024/02/24 01:22:12;;;;;;;11.93;11.13;;;6.30;99.90;;;;;;4784866;30;20531;-45
2024/02/24 01:24:38;;;;;;;12.60;11.77;;;6.40;99.90;;;;;;4786358;29;20210;-43
2024/02/24 01:27:04;;;;;;;11.33;10.60;;;6.30;99.90;;;;;;4786676;29;20432;-43
2024/02/24 01:29:30;;;;;;;13.07;12.27;;;6.30;99.90;;;;;;4788327;29;20211;-44
2024/02/24 01:32:01;;;;;;;12.20;11.20;;;6.30;99.90;;;;;;4804631;29;20431;-48
2024/02/24 01:34:27;;;;;;;11.50;10.63;;;6.20;99.90;;;;;;4798558;29;20484;-45
2024/02/24 01:36:54;;;;;;;12.53;11.73;;;6.20;99.90;;;;;;4792924;29;20245;-50
2024/02/24 01:39:19;;;;;;;12.93;12.13;;;6.20;99.90;;;;;;4794783;29;20429;-48
2024/02/24 01:41:45;;;;;;;12.90;12.00;;;6.10;99.90;;;;;;4796111;29;20437;-48
2024/02/24 01:44:11;;;;;;;12.87;11.77;;;6.10;99.90;;;;;;4783932;29;20200;-42
2024/02/24 01:46:37;;;;;;;13.60;12.70;;;6.00;99.90;;;;;;4789978;29;20428;-48
2024/02/24 01:49:02;;;;;;;13.10;12.23;;;6.00;99.90;;;;;;4794640;29;20184;-57
2024/02/24 01:51:28;;;;;;;12.00;11.20;;;6.00;99.90;;;;;;4786743;29;20251;-58
2024/02/24 01:53:54;;;;;;;12.90;12.10;;;5.90;99.90;;;;;;4802074;29;20277;-57
2024/02/24 01:56:21;;;;;;;13.37;12.57;;;5.90;1.00;;;;;;4794329;29;20255;-58
2024/02/24 01:58:48;;;;;;;13.07;12.27;;;5.80;1.00;;;;;;4797536;29;20429;-57
2024/02/24 02:01:16;;;;;;;13.98;12.77;;;5.80;1.00;;;;;;4786646;29;20196;-58
2024/02/24 02:03:42;;;;;;;12.73;11.93;;;5.70;1.00;;;;;;4777879;29;20618;-58
2024/02/24 02:06:08;;;;;;;13.10;12.20;;;5.60;98.70;;;;;;4785789;30;20715;-59
2024/02/24 02:08:34;;;;;;;13.32;12.27;;;5.50;99.90;;;;;;4786744;29;20195;-51
2024/02/24 02:11:00;;;;;;;12.50;11.70;;;5.50;99.90;;;;;;4785223;30;20206;-52
2024/02/24 02:13:25;;;;;;;12.40;11.50;;;5.50;99.90;;;;;;4788346;29;20198;-57
2024/02/24 02:15:53;;;;;;;13.70;12.60;;;5.30;1.00;;;;;;4799735;29;20186;-60
2024/02/24 02:18:19;;;;;;;12.63;11.82;;;5.30;1.00;;;;;;4786778;29;20538;-44
2024/02/24 02:20:48;;;;;;;13.50;12.50;;;5.20;99.90;;;;;;4784491;30;20206;-44
2024/02/24 02:23:14;;;;;;;12.95;12.00;;;5.20;1.00;;;;;;4785314;29;20256;-44
2024/02/24 02:25:40;;;;;;;13.13;12.23;;;5.10;99.90;;;;;;4774185;29;20278;-44
2024/02/24 02:28:05;;;;;;;13.73;12.77;;;5.00;1.00;;;;;;4767781;30;20434;-44
2024/02/24 02:30:31;;;;;;;12.97;12.03;;;5.00;99.90;;;;;;4776301;30;20187;-44
2024/02/24 02:32:57;;;;;;;12.50;11.70;;;4.90;1.00;;;;;;4785232;29;20191;-44
2024/02/24 02:35:22;;;;;;;13.33;12.43;;;4.90;1.00;;;;;;4785537;29;20202;-46
2024/02/24 02:37:48;;;;;;;12.87;12.07;;;4.80;99.90;;;;;;4784946;29;20179;-47
2024/02/24 02:40:14;;;;;;;12.83;12.03;;;4.80;1.00;;;;;;4784295;29;20441;-46
2024/02/24 02:42:40;;;;;;;12.63;11.82;;;4.80;99.90;;;;;;4784354;29;20279;-43
2024/02/24 02:45:06;;;;;;;11.93;11.23;;;4.70;1.00;;;;;;4784773;29;20298;-44
2024/02/24 02:47:32;;;;;;;12.77;12.00;;;4.80;99.90;;;;;;4785626;29;20183;-41
2024/02/24 02:49:57;;;;;;;12.57;11.67;;;4.70;99.90;;;;;;4775064;29;20213;-49
2024/02/24 02:52:23;;;;;;;12.60;11.70;;;4.70;99.90;;;;;;4776356;30;20190;-44
2024/02/24 02:54:48;;;;;;;13.43;12.47;;;4.70;99.90;;;;;;4788345;29;20199;-44
2024/02/24 02:57:15;;;;;;;13.10;12.20;;;4.60;99.90;;;;;;4784102;30;20704;-47
2024/02/24 02:59:41;;;;;;;12.50;11.38;;;4.60;99.90;;;;;;4783776;29;20195;-45
2024/02/24 03:02:07;;;;;;;12.30;11.60;;;4.60;99.90;;;;;;4782934;29;20199;-47
2024/02/24 03:04:32;;;;;;;13.10;12.20;;;4.60;99.90;;;;;;4782326;29;20243;-42
2024/02/24 03:06:59;;;;;;;12.93;12.03;;;4.50;99.90;;;;;;4784216;29;20211;-49
2024/02/24 03:09:25;;;;;;;13.52;12.63;;;4.50;1.00;;;;;;4784854;29;20190;-48
2024/02/24 03:11:50;;;;;;;13.40;12.50;;;4.50;1.00;;;;;;4787827;29;20190;-43
2024/02/24 03:14:16;;;;;;;13.50;12.47;;;4.50;1.00;;;;;;4796280;29;20303;-44
2024/02/24 03:16:41;;;;;;;13.70;12.70;;;4.50;1.00;;;;;;4793101;29;20213;-58
2024/02/24 03:19:08;;;;;;;14.40;13.40;;;4.50;1.00;;;;;;4785812;29;20269;-44
2024/02/24 03:21:34;;;;;;;13.70;12.60;;;4.50;1.00;;;;;;4783638;29;20199;-44
2024/02/24 03:24:00;;;;;;;13.37;12.47;;;4.50;1.00;;;;;;4782936;30;20219;-46
2024/02/24 03:26:26;;;;;;;13.30;12.25;;;4.50;1.00;;;;;;4788167;29;20187;-44
2024/02/24 03:28:52;;;;;;;14.03;13.03;;;4.40;1.00;;;;;;4791172;29;20205;-44
2024/02/24 03:31:17;;;;;;;13.43;12.53;;;4.40;1.00;;;;;;4789702;29;20212;-46
2024/02/24 03:33:43;;;;;;;13.23;12.43;;;4.40;1.00;;;;;;4796280;29;20256;-45
2024/02/24 03:36:14;;;;;;;12.53;11.70;;;4.30;1.00;;;;;;4783837;29;20459;-46
2024/02/24 03:38:40;;;;;;;13.15;12.35;;;4.30;1.00;;;;;;4779713;29;20195;-59
2024/02/24 03:41:07;;;;;;;13.80;12.80;;;4.20;1.00;;;;;;4796652;29;20187;-58
2024/02/24 03:43:34;;;;;;;13.50;12.60;;;4.20;1.00;;;;;;4784577;29;20666;-59
2024/02/24 03:46:04;;;;;;;13.00;12.10;;;4.20;1.00;;;;;;4792337;29;20211;-58
2024/02/24 03:48:31;;;;;;;13.45;12.45;;;4.10;1.00;;;;;;4771849;29;20191;-59
2024/02/24 03:50:57;;;;;;;14.38;13.18;;;4.10;1.00;;;;;;4789120;29;20553;-59
2024/02/24 03:53:23;;;;;;;12.88;11.88;;;4.10;1.00;;;;;;4782821;29;20245;-56
2024/02/24 03:55:51;;;;;;;13.23;12.17;;;4.00;1.00;;;;;;4783897;29;20195;-60
2024/02/24 03:58:19;;;;;;;12.82;12.02;;;4.00;1.00;;;;;;4798080;29;20191;-58
2024/02/24 04:00:45;;;;;;;12.65;11.75;;;3.90;1.00;;;;;;4802253;29;20201;-53
2024/02/24 04:03:11;;;;;;;11.73;10.95;;;3.90;1.00;;;;;;4785857;29;20187;-58
2024/02/24 04:05:37;;;;;;;12.20;11.50;;;3.90;1.00;;;;;;4802939;29;20772;-60
2024/02/24 04:08:03;;;;;;;12.25;11.48;;;3.90;1.00;;;;;;4799601;29;20187;-58
2024/02/24 04:10:29;;;;;;;11.50;10.85;;;3.90;1.00;;;;;;4787433;30;20893;-58
2024/02/24 04:12:55;;;;;;;12.60;11.80;;;3.90;1.00;;;;;;4798027;29;20183;-59
2024/02/24 04:15:21;;;;;;;11.57;10.87;;;3.90;1.00;;;;;;4790744;29;20441;-59
2024/02/24 04:17:49;;;;;;;12.50;11.70;;;3.90;1.00;;;;;;4791374;29;20187;-59
2024/02/24 04:20:16;;;;;;;12.60;11.80;;;3.90;1.00;;;;;;4799857;29;20312;-59
2024/02/24 04:22:42;;;;;;;12.40;11.35;;;3.90;1.00;;;;;;4800313;29;20186;-57
2024/02/24 04:25:08;;;;;;;12.37;11.57;;;3.90;1.00;;;;;;4798104;29;20238;-59
2024/02/24 04:27:34;;;;;;;12.18;11.32;;;3.90;1.00;;;;;;4794409;29;20437;-59
2024/02/24 04:29:59;;;;;;;11.60;10.80;;;3.90;1.00;;;;;;4786912;29;20188;-59
2024/02/24 04:32:25;;;;;;;12.43;11.53;;;3.90;1.00;;;;;;4784812;29;20229;-58
2024/02/24 04:34:51;;;;;;;12.00;11.20;;;3.90;1.00;;;;;;4796108;29;20186;-58
2024/02/24 04:37:16;;;;;;;12.43;11.50;;;3.90;1.00;;;;;;4800180;29;20654;-47
2024/02/24 04:39:42;;;;;;;13.33;12.33;;;3.90;1.00;;;;;;4805324;29;20653;-43
2024/02/24 04:42:07;;;;;;;12.20;11.40;;;3.80;1.00;;;;;;4791066;29;20252;-44
2024/02/24 04:44:33;;;;;;;12.70;11.90;;;3.80;1.00;;;;;;4787020;29;20245;-42
2024/02/24 04:47:00;;;;;;;12.80;11.97;;;3.80;1.00;;;;;;4798451;29;20257;-44
2024/02/24 04:49:26;;;;;;;12.55;11.55;;;3.80;1.00;;;;;;4799819;29;20183;-43
2024/02/24 04:51:51;;;;;;;12.70;11.90;;;3.80;1.00;;;;;;4786027;29;20198;-42
2024/02/24 04:54:18;;;;;;;12.83;12.03;;;3.80;1.00;;;;;;4787562;29;20202;-45
2024/02/24 04:56:44;;;;;;;13.05;12.15;;;3.80;1.00;;;;;;4794594;29;20706;-41
2024/02/24 04:59:09;;;;;;;12.73;11.83;;;3.80;1.00;;;;;;4791317;29;20202;-42
2024/02/24 05:01:38;;;;;;;13.00;12.00;;;3.90;1.00;;;;;;4787369;29;20199;-41
2024/02/24 05:04:04;;;;;;;13.38;12.18;;;3.90;1.00;;;;;;4795823;29;20238;-46
2024/02/24 05:06:29;;;;;;;13.50;12.40;;;3.90;1.00;;;;;;4805168;29;20203;-46
2024/02/24 05:08:55;;;;;;;13.43;12.33;;;3.80;1.00;;;;;;4795745;29;20946;-45
2024/02/24 05:11:21;;;;;;;13.67;12.57;;;3.80;1.00;;;;;;4792853;29;20218;-44
2024/02/24 05:13:47;;;;;;;12.50;11.63;;;3.80;1.00;;;;;;4799254;29;20187;-48
2024/02/24 05:16:14;;;;;;;13.80;12.40;;;3.70;1.00;;;;;;4786591;29;20214;-43
2024/02/24 05:18:40;;;;;;;13.50;12.60;;;3.70;1.00;;;;;;4785955;29;20487;-47
2024/02/24 05:21:06;;;;;;;12.65;11.85;;;3.70;1.00;;;;;;4792835;29;20194;-42
2024/02/24 05:23:32;;;;;;;12.13;11.40;;;3.70;1.00;;;;;;4791509;29;20210;-48
2024/02/24 05:25:57;;;;;;;12.77;11.73;;;3.70;1.00;;;;;;4804169;29;20650;-43
2024/02/24 05:28:23;;;;;;;13.70;12.60;;;3.70;1.00;;;;;;4788745;29;20187;-44
2024/02/24 05:30:49;;;;;;;12.40;11.47;;;3.60;1.00;;;;;;4785867;29;20191;-44
2024/02/24 05:33:15;;;;;;;13.03;11.83;;;3.60;1.00;;;;;;4786593;29;20212;-47
2024/02/24 05:35:41;;;;;;;12.05;11.27;;;3.60;1.00;;;;;;4785489;29;20190;-44
2024/02/24 05:38:06;;;;;;;12.03;11.23;;;3.60;1.00;;;;;;4792188;29;20191;-43
2024/02/24 05:40:32;;;;;;;12.77;11.97;;;3.50;1.00;;;;;;4802718;29;20435;-46
2024/02/24 05:42:58;;;;;;;12.40;11.63;;;3.50;1.00;;;;;;4785895;29;20227;-48
2024/02/24 05:45:23;;;;;;;12.53;11.63;;;3.50;1.00;;;;;;4794079;29;20747;-58
2024/02/24 05:47:49;;;;;;;12.40;11.60;;;3.40;1.00;;;;;;4788196;29;20202;-59
2024/02/24 05:50:15;;;;;;;11.80;11.00;;;3.40;1.00;;;;;;4797773;29;20195;-59
2024/02/24 05:52:40;;;;;;;12.37;11.57;;;3.30;1.00;;;;;;4798545;29;20199;-58
2024/02/24 05:55:07;;;;;;;13.00;12.00;;;3.30;1.00;;;;;;4791451;29;20223;-58
2024/02/24 05:57:33;;;;;;;13.13;12.05;;;3.30;1.00;;;;;;4784719;29;20199;-58
2024/02/24 05:59:59;;;;;;;13.00;11.80;;;3.20;1.00;;;;;;4794368;29;20194;-44
2024/02/24 06:02:25;;;;;;;13.13;12.23;;;3.20;1.00;;;;;;4779788;29;20184;-42
2024/02/24 06:04:51;;;;;;;13.27;12.37;;;3.20;1.00;;;;;;4784410;29;20962;-59
2024/02/24 06:07:17;;;;;;;12.80;11.83;;;3.10;1.00;;;;;;4789638;29;20439;-59
2024/02/24 06:09:43;;;;;;;12.13;11.32;;;3.10;1.00;;;;;;4799614;29;20477;-58
2024/02/24 06:12:08;;;;;;;12.70;11.90;;;3.10;1.00;;;;;;4798587;29;20246;-58
2024/02/24 06:14:34;;;;;;;12.87;11.97;;;3.10;1.00;;;;;;4783616;30;20534;-59
2024/02/24 06:17:00;;;;;;;12.47;11.60;;;3.10;1.00;;;;;;4791298;29;20207;-59
2024/02/24 06:19:26;;;;;;;13.10;12.00;;;3.10;1.00;;;;;;4793470;29;20620;-58
2024/02/24 06:21:52;;;;;;;13.00;12.20;;;3.10;1.00;;;;;;4787713;29;20265;-60
2024/02/24 06:24:18;;;;;;;14.37;13.17;;;3.00;1.00;;;;;;4784801;29;20259;-59
2024/02/24 06:26:44;;;;;;;12.90;12.10;;;3.10;1.00;;;;;;4785805;30;20227;-58
2024/02/24 06:29:09;;;;;;;13.37;12.20;;;3.10;1.00;;;;;;4777437;29;20196;-58
2024/02/24 06:31:35;;;;;;;12.83;11.83;;;3.10;1.00;;;;;;4784622;29;20195;-58
2024/02/24 06:34:01;;;;;;;12.70;11.80;;;3.00;1.00;;;;;;4783429;29;20210;-59
2024/02/24 06:36:26;;;;;;;13.43;12.33;;;3.00;1.00;;;;;;4785368;29;20670;-58
2024/02/24 06:38:52;;;;;;;12.77;11.93;;;3.10;1.00;;;;;;4785677;29;20421;-58
2024/02/24 06:41:18;;;;;;;13.27;12.40;;;3.10;1.00;;;;;;4785552;30;20275;-58
2024/02/24 06:43:44;;;;;;;12.97;12.07;;;3.10;1.00;;;;;;4782897;30;20211;-55
2024/02/24 06:46:11;;;;;;;12.95;12.05;;;3.20;1.00;;;;;;4766331;30;20430;-57
2024/02/24 06:48:37;;;;;;;14.18;12.98;;;3.20;1.00;;;;;;4769541;30;20231;-58
2024/02/24 06:51:04;;;;;;;13.80;12.80;;;3.10;1.00;;;;;;4783406;29;20241;-59
2024/02/24 06:53:29;;;;;;;13.45;12.55;;;3.10;1.00;;;;;;4776917;29;20195;-58
2024/02/24 06:55:55;;;;;;;13.57;12.43;;;3.10;1.00;;;;;;4783175;30;20256;-57
2024/02/24 06:58:21;;;;;;;14.97;13.80;;;3.30;1.00;;;;;;4788926;29;20211;-54
2024/02/24 07:00:47;;;;;;;13.40;12.45;;;3.30;1.00;;;;;;4796786;29;20525;-58
2024/02/24 07:03:12;;;;;;;13.77;12.73;;;3.40;1.00;;;;;;4783226;29;20198;-58
2024/02/24 07:05:38;;;;;;;13.40;12.40;;;3.50;1.00;;;;;;4787894;29;20209;-53
2024/02/24 07:08:04;;;;;;;13.80;12.70;;;3.70;1.00;;;;;;4802809;29;20248;-59
2024/02/24 07:10:29;;;;;;;14.50;13.40;;;3.80;1.00;;;;;;4791184;29;20202;-56
2024/02/24 07:12:55;;;;;;;14.43;13.20;;;4.00;1.00;;;;;;4783515;29;20541;-57
2024/02/24 07:15:22;;;;;;;14.07;12.97;;;4.10;1.00;;;;;;4783692;29;20264;-58
2024/02/24 07:17:48;;;;;;;13.57;12.73;;;4.30;1.00;;;;;;4796116;29;20183;-51
2024/02/24 07:20:14;;;;;;;13.70;12.73;;;4.40;99.90;;;;;;4782189;29;20626;-58
2024/02/24 07:22:40;;;;;;;13.40;12.23;;;4.50;1.00;;;;;;4793580;29;20210;-57
2024/02/24 07:25:06;;;;;;;12.00;11.20;;;4.60;99.90;;;;;;4785897;29;20211;-58
2024/02/24 07:27:33;;;;;;;14.63;13.17;;;4.80;99.90;;;;;;4787553;29;20202;-57
2024/02/24 07:30:00;;;;;;;13.45;12.55;;;4.90;99.90;;;;;;4776094;29;21015;-58
2024/02/24 07:32:25;;;;;;;13.38;12.32;;;5.00;99.90;;;;;;4779642;29;20247;-52
2024/02/24 07:34:51;;;;;;;12.50;11.70;;;5.10;1.00;;;;;;4777304;29;20195;-55
2024/02/24 07:37:17;;;;;;;12.63;11.70;;;5.30;99.90;;;;;;4786239;29;20195;-58
2024/02/24 07:39:43;;;;;;;12.60;11.70;;;5.40;1.00;;;;;;4783602;29;20187;-60
2024/02/24 07:42:09;;;;;;;12.48;11.60;;;5.40;1.00;;;;;;4792716;29;20198;-58
2024/02/24 07:44:34;;;;;;;13.00;11.97;;;5.60;99.90;;;;;;4782850;29;20222;-59
2024/02/24 07:47:01;;;;;;;12.47;11.53;;;5.70;29.50;;;;;;4775998;29;21136;-59
2024/02/24 07:49:27;;;;;;;12.45;11.35;;;5.80;1.00;;;;;;4786244;29;20187;-58
2024/02/24 07:51:52;;;;;;;13.27;12.17;;;5.90;1.00;;;;;;4784857;29;20183;-57
2024/02/24 07:54:18;;;;;;;12.40;11.60;;;6.00;1.00;;;;;;4780572;29;20191;-58
2024/02/24 07:56:43;;;;;;;11.33;10.43;;;6.10;99.90;;;;;;4786488;29;20206;-58
2024/02/24 07:59:09;;;;;;;11.90;11.10;;;6.20;99.90;;;;;;4780241;29;20557;-43
2024/02/24 08:01:36;;;;;;;12.40;11.50;;;6.30;99.90;;;;;;4776490;29;20195;-46
2024/02/24 08:04:02;;;;;;;11.52;10.73;;;6.40;99.90;;;;;;4778402;29;20310;-44
2024/02/24 08:06:27;;;;;;;12.17;11.20;;;6.50;99.90;;;;;;4775350;29;20187;-47
2024/02/24 08:08:53;;;;;;;12.33;11.53;;;6.80;99.90;;;;;;4775175;29;20191;-45
2024/02/24 08:11:18;;;;;;;13.10;12.10;;;6.90;63.80;;;;;;4773687;29;20198;-56
2024/02/24 08:13:45;;;;;;;12.43;11.63;;;7.10;96.50;;;;;;4935427;24;20610;-57
2024/02/24 08:16:11;;;;;;;12.70;11.73;;;7.40;99.90;;;;;;4781468;29;20194;-57
2024/02/24 08:18:38;;;;;;;13.00;12.20;;;7.70;78.60;;;;;;4781186;29;20952;-55
2024/02/24 08:21:08;;;;;;;12.90;12.10;;;8.00;31.90;;;;;;4781483;29;20511;-57
2024/02/24 08:23:34;;;;;;;12.77;11.87;;;8.50;1.00;;;;;;4782785;29;20855;-58
2024/02/24 08:26:00;;;;;;;12.93;11.80;;;8.90;1.00;;;;;;4782061;29;20456;-56
2024/02/24 08:28:25;;;;;;;12.70;11.90;;;9.40;1.00;;;;;;4782349;29;20469;-59
2024/02/24 08:30:51;;;;;;;11.97;10.87;;;9.80;1.00;;;;;;4783468;29;20218;-59
2024/02/24 08:33:22;;;;;;;13.00;12.10;;;10.30;1.00;;;;;;4783270;30;20249;-58
2024/02/24 08:35:50;;;;;;;13.00;12.20;;;10.80;1.00;;;;;;4783682;29;20171;-58
2024/02/24 08:38:17;;;;;;;12.00;11.00;;;11.20;1.00;;;;;;4783056;29;20796;-56
2024/02/24 08:40:43;;;;;;;12.10;11.40;;;11.40;1.00;;;;;;4779010;30;20429;-58
2024/02/24 08:43:08;;;;;;;12.30;11.50;;;11.70;1.00;;;;;;4764862;30;20426;-58
2024/02/24 08:45:34;;;;;;;13.20;12.30;;;12.20;1.00;;;;;;4766390;30;21005;-59
2024/02/24 08:48:00;;;;;;;12.00;11.27;;;12.60;1.00;;;;;;4783391;29;20180;-56
2024/02/24 08:50:25;;;;;;;13.20;12.40;;;13.00;99.90;;;;;;4783863;29;20188;-57
2024/02/24 08:52:51;;;;;;;12.40;11.50;;;13.40;99.90;;;;;;4770523;29;20226;-58
2024/02/24 08:55:16;;;;;;;11.20;10.60;;;13.50;99.90;;;;;;4780234;30;20564;-58
2024/02/24 08:57:42;;;;;;;11.17;10.57;;;14.00;99.90;;;;;;4794319;29;20240;-57
2024/02/24 09:00:08;;;;;;;11.63;11.03;;;14.50;99.90;;;;;;4805107;29;20601;-58
2024/02/24 09:02:34;;;;;;;12.20;11.60;;;14.60;99.90;;;;;;4784342;29;20261;-56
2024/02/24 09:05:00;;;;;;;12.50;11.70;;;14.80;99.90;;;;;;4798253;29;20467;-57
2024/02/24 09:07:25;;;;;;;11.93;11.23;;;15.10;99.90;;;;;;4797774;29;20194;-57
2024/02/24 09:09:51;;;;;;;12.17;11.47;;;15.20;99.90;;;;;;4803774;29;20182;-58
2024/02/24 09:12:17;;;;;;;11.97;11.30;;;15.40;99.90;;;;;;4797846;29;20195;-57
2024/02/24 09:14:42;;;;;;;11.37;10.77;;;15.50;99.90;;;;;;4797581;29;20199;-58
2024/02/24 09:17:08;;;;;;;11.10;10.30;;;15.70;99.90;;;;;;4800315;29;20186;-52
2024/02/24 09:19:33;;;;;;;12.53;11.73;;;15.90;99.90;;;;;;4804267;29;20202;-46
2024/02/24 09:21:59;;;;;;;11.73;11.10;;;16.00;99.90;;;;;;4801679;29;20202;-51
2024/02/24 09:24:25;;;;;;;11.90;11.10;;;16.30;99.90;;;;;;4804037;29;20222;-44
2024/02/24 09:26:50;;;;;;;11.53;10.83;;;16.50;99.90;;;;;;4803547;29;20191;-45
2024/02/24 09:29:16;;;;;;;11.77;11.07;;;16.90;99.90;;;;;;4803920;29;20195;-44
2024/02/24 09:31:42;;;;;;;11.90;11.20;;;17.40;99.90;;;;;;4799834;29;20191;-51
2024/02/24 09:34:07;;;;;;;11.53;10.87;;;17.60;99.90;;;;;;4796709;29;20187;-45
2024/02/24 09:36:36;;;;;;;11.70;10.90;;;18.00;99.90;;;;;;4799020;29;20622;-57
2024/02/24 09:39:03;;;;;;;11.27;10.67;;;18.10;99.90;;;;;;4796251;29;20658;-58
2024/02/24 09:41:28;;;;;;;11.90;11.20;;;18.40;99.90;;;;;;4802854;29;20629;-56
2024/02/24 09:43:54;;;;;;;9.30;8.70;;;18.50;99.90;;;;;;4796041;29;20780;-60
2024/02/24 09:46:20;;;;;;;10.93;10.43;;;18.60;99.90;;;;;;4804037;29;20206;-54
2024/02/24 09:48:49;;;;;;;10.17;9.60;;;18.90;99.90;;;;;;4796664;29;20190;-48
2024/02/24 09:51:14;;;;;;;10.60;10.10;;;19.00;99.90;;;;;;4803642;29;20443;-49
2024/02/24 09:53:40;;;;;;;10.50;9.90;;;19.20;99.90;;;;;;4787587;29;21355;-44
2024/02/24 09:56:06;;;;;;;9.63;9.23;;;19.30;99.90;;;;;;4797838;29;20195;-49
2024/02/24 09:58:33;;;;;;;10.00;9.50;;;19.30;99.90;;;;;;4796506;29;20496;-45
2024/02/24 10:00:59;;;;;;;10.77;10.27;;;19.70;99.90;;;;;;4803370;29;20195;-43
2024/02/24 10:03:25;;;;;;;9.53;9.03;;;19.70;99.90;;;;;;4782109;29;20444;-46
2024/02/24 10:05:51;;;;;;;10.53;10.10;;;20.10;99.90;;;;;;4802466;29;20186;-44
2024/02/24 10:08:17;;;;;;;10.70;10.20;;;20.30;99.90;;;;;;4803011;29;20435;-43
2024/02/24 10:10:44;;;;;;;10.33;9.93;;;20.40;99.90;;;;;;4803127;29;20187;-45
2024/02/24 10:13:10;;;;;;;10.40;9.90;;;20.60;99.90;;;;;;4792813;29;20505;-45
2024/02/24 10:15:36;;;;;;;10.10;9.60;;;19.80;99.90;;;;;;4790566;29;20471;-43
2024/02/24 10:18:02;;;;;;;9.57;9.07;;;19.00;99.90;;;;;;4791836;29;20183;-42
2024/02/24 10:20:29;;;;;;;10.30;9.80;;;19.40;99.90;;;;;;4788214;29;20440;-44
2024/02/24 10:22:54;;;;;;;10.50;10.00;;;19.50;99.90;;;;;;4793184;29;20432;-58
2024/02/24 10:25:20;;;;;;;10.30;9.80;;;20.10;99.90;;;;;;4800036;29;20566;-52
2024/02/24 10:27:46;;;;;;;9.30;8.90;;;20.10;99.90;;;;;;4797738;29;20445;-59
2024/02/24 10:30:13;;;;;;;9.97;9.57;;;18.60;99.90;;;;;;4800368;29;20183;-60
2024/02/24 10:32:39;;;;;;;9.93;9.33;;;18.40;99.90;;;;;;4799182;29;20429;-56
2024/02/24 10:35:06;;;;;;;8.00;7.70;;;18.60;99.90;;;;;;4800289;29;20436;-57
2024/02/24 10:37:34;;;;;;;10.33;9.83;;;18.40;99.90;;;;;;4800910;29;20477;-51
2024/02/24 10:40:02;;;;;;;10.93;10.30;;;18.80;99.90;;;;;;4800432;29;20424;-45
2024/02/24 10:42:29;;;;;;;10.10;9.50;;;18.90;99.90;;;;;;4801943;29;20440;-55
2024/02/24 10:44:55;;;;;;;10.00;9.60;;;19.40;99.90;;;;;;4800233;29;21052;-57
2024/02/24 10:47:21;;;;;;;10.10;9.67;;;18.80;99.90;;;;;;4783405;29;20444;-58
2024/02/24 10:49:47;;;;;;;9.57;9.07;;;18.20;99.90;;;;;;4782710;29;20436;-56
2024/02/24 10:52:14;;;;;;;9.53;8.93;;;18.30;99.90;;;;;;4788596;29;20506;-58
2024/02/24 10:54:42;;;;;;;8.90;8.57;;;18.30;99.90;;;;;;4770152;29;20195;-46
2024/02/24 10:57:09;;;;;;;8.63;8.33;;;18.60;99.90;;;;;;4777634;29;20471;-58
2024/02/24 10:59:35;;;;;;;9.10;8.70;;;18.50;99.90;;;;;;4791454;29;20482;-57
2024/02/24 11:02:03;;;;;;;9.33;8.93;;;19.10;99.90;;;;;;4781770;29;20455;-58
2024/02/24 11:04:32;;;;;;;8.60;8.20;;;19.80;99.90;;;;;;4790649;29;20974;-57
2024/02/24 11:07:00;;;;;;;8.60;8.20;;;20.30;99.90;;;;;;4790091;29;20448;-56
2024/02/24 11:09:25;;;;;;;11.13;10.63;;;19.70;99.90;;;;;;4778489;29;20445;-57
2024/02/24 11:11:51;;;;;;;10.30;9.90;;;19.70;99.90;;;;;;4792310;29;20443;-57
2024/02/24 11:14:20;;;;;;;11.30;10.60;;;19.60;99.90;;;;;;4790405;29;20242;-53
2024/02/24 11:16:45;;;;;;;10.40;10.00;;;19.60;99.90;;;;;;4794761;29;20456;-55
2024/02/24 11:19:11;;;;;;;10.00;9.50;;;19.20;99.90;;;;;;4789324;29;20943;-57
2024/02/24 11:22:02;;;;;;;10.30;9.80;;;19.00;99.90;;;;;;4790507;29;20189;-58
2024/02/24 11:24:36;;;;;;;11.03;10.53;;;17.40;99.90;;;;;;4781822;29;21017;-57
2024/02/24 11:27:02;;;;;;;10.30;9.73;;;16.80;99.90;;;;;;4781250;29;20432;-58
2024/02/24 11:29:29;;;;;;;9.80;9.40;;;16.40;99.90;;;;;;4776491;29;20425;-58
2024/02/24 11:32:11;;;;;;;10.77;10.27;;;15.50;99.90;;;;;;4775448;29;20979;-52
2024/02/24 11:34:42;;;;;;;11.00;10.50;;;15.10;99.90;;;;;;4778089;29;20448;-60
2024/02/24 11:37:08;;;;;;;10.20;9.80;;;14.40;99.90;;;;;;4777300;29;20440;-59
2024/02/24 11:39:39;;;;;;;9.87;9.47;;;14.20;99.90;;;;;;4780965;29;20428;-59
2024/02/24 11:42:06;;;;;;;9.97;9.47;;;14.00;99.90;;;;;;4784409;29;20496;-60
2024/02/24 11:44:32;;;;;;;10.07;9.57;;;13.80;99.90;;;;;;4785623;29;20472;-60
2024/02/24 11:46:58;;;;;;;9.90;9.40;;;13.80;99.90;;;;;;4790577;29;20436;-59
2024/02/24 11:49:23;;;;;;;9.50;9.10;;;13.60;99.90;;;;;;4783781;29;20503;-60
2024/02/24 11:51:50;;;;;;;9.03;8.43;;;13.40;99.90;;;;;;4791745;29;20709;-60
2024/02/24 11:54:16;;;;;;;8.67;8.27;;;13.30;99.90;;;;;;4782827;29;20186;-59
2024/02/24 11:56:43;;;;;;;9.93;9.53;;;13.40;99.90;;;;;;4790121;29;20436;-60
2024/02/24 11:59:11;;;;;;;9.80;9.40;;;14.00;99.90;;;;;;4776002;29;20487;-59
2024/02/24 12:01:37;;;;;;;10.63;10.13;;;14.00;99.90;;;;;;4779588;29;20812;-60
2024/02/24 12:04:03;;;;;;;10.20;9.60;;;14.00;99.90;;;;;;4789385;29;20852;-44
2024/02/24 12:06:30;;;;;;;9.93;9.53;;;14.10;99.90;;;;;;4785253;29;20453;-44
2024/02/24 12:08:58;;;;;;;10.10;9.60;;;14.40;99.90;;;;;;4781457;29;20994;-43
2024/02/24 12:11:24;;;;;;;9.20;8.80;;;15.50;99.90;;;;;;4786541;29;20471;-43
2024/02/24 12:13:50;;;;;;;9.57;9.07;;;17.00;99.90;;;;;;4786052;29;20484;-41
2024/02/24 12:16:19;;;;;;;9.83;9.27;;;17.60;99.90;;;;;;4786844;29;20934;-42
2024/02/24 12:18:45;;;;;;;9.17;8.77;;;18.70;99.90;;;;;;4787313;29;20206;-58
2024/02/24 12:21:12;;;;;;;10.20;9.80;;;19.00;99.90;;;;;;4775304;29;20518;-56
2024/02/24 12:23:38;;;;;;;9.53;9.13;;;18.70;99.90;;;;;;4786903;29;20558;-58
2024/02/24 12:26:10;;;;;;;10.10;9.70;;;18.60;99.90;;;;;;4779333;29;20428;-56
2024/02/24 12:28:39;;;;;;;9.60;9.20;;;19.10;99.90;;;;;;4796042;29;20950;-56
2024/02/24 12:31:08;;;;;;;9.60;9.20;;;18.40;99.90;;;;;;4781507;29;20543;-58
2024/02/24 12:33:35;;;;;;;9.03;8.63;;;18.40;99.90;;;;;;4778353;29;20451;-59
2024/02/24 12:36:10;;;;;;;10.00;9.60;;;16.80;99.90;;;;;;4786374;29;20459;-53